< < Back
Terminal Aerodrome Forecast


Current Version              Previous Versions:   1  2  3  4  5  6  7  8  9  

Terminal Aerodrome Forecast

085
FTUS42 KFFC 271720
TAFFTY
TAF
KFTY 271720Z 2718/2818 32008KT P6SM FEW040 SCT250
     FM280000 32004KT P6SM BKN200
     FM280500 03004KT P6SM BKN150
     FM281500 09010KT P6SM SCT035 BKN150=

Latest METAR

607
SAUS70 KWBC 281000
MTRFTY
METAR KFTY 280953Z 03004KT 10SM CLR 10/07 A2989 RMK AO2 SLP117
T01000067


USA.gov is the U.S. government's official web portal to all federal, state and local government web resources and services.